sensor_id;sensor_type;location;lat;lon;timestamp;pressure;altitude;pressure_sealevel;temperature;humidity
12913;BME280;6524;51.368;11.984;2024-02-28T00:03:53;152672.91;;;4.08;73.60
12913;BME280;6524;51.368;11.984;2024-02-28T00:08:54;152669.03;;;4.06;73.40
12913;BME280;6524;51.368;11.984;2024-02-28T00:13:54;152649.56;;;3.99;73.39
12913;BME280;6524;51.368;11.984;2024-02-28T00:18:55;152654.75;;;4.01;73.71
12913;BME280;6524;51.368;11.984;2024-02-28T00:23:55;152613.25;;;3.84;73.91
12913;BME280;6524;51.368;11.984;2024-02-28T00:28:56;152605.44;;;3.81;73.77
12913;BME280;6524;51.368;11.984;2024-02-28T00:33:56;152631.41;;;3.91;74.20
12913;BME280;6524;51.368;11.984;2024-02-28T00:38:57;152636.59;;;3.93;74.04
12913;BME280;6524;51.368;11.984;2024-02-28T00:43:57;152589.88;;;3.75;74.03
12913;BME280;6524;51.368;11.984;2024-02-28T00:48:57;152556.09;;;3.62;74.55
12913;BME280;6524;51.368;11.984;2024-02-28T00:53:58;152615.81;;;3.85;73.78
12913;BME280;6524;51.368;11.984;2024-02-28T00:58:58;152633.97;;;3.92;73.49
12913;BME280;6524;51.368;11.984;2024-02-28T05:03:41;152303.22;;;2.62;69.77
12913;BME280;6524;51.368;11.984;2024-02-28T05:08:41;152327.84;;;2.72;69.41
12913;BME280;6524;51.368;11.984;2024-02-28T05:13:42;152281.16;;;2.53;69.39
12913;BME280;6524;51.368;11.984;2024-02-28T05:18:46;152286.38;;;2.55;68.86
12913;BME280;6524;51.368;11.984;2024-02-28T05:23:47;152286.38;;;2.55;68.67
12913;BME280;6524;51.368;11.984;2024-02-28T05:28:47;152384.91;;;2.94;66.98
12913;BME280;6524;51.368;11.984;2024-02-28T05:33:52;152309.66;;;2.65;67.29
12913;BME280;6524;51.368;11.984;2024-02-28T05:38:55;152299.31;;;2.61;67.18
12913;BME280;6524;51.368;11.984;2024-02-28T05:43:56;152355.06;;;2.83;66.12
12913;BME280;6524;51.368;11.984;2024-02-28T05:48:56;152360.25;;;2.85;66.29
12913;BME280;6524;51.368;11.984;2024-02-28T05:53:56;152364.13;;;2.86;65.91
12913;BME280;6524;51.368;11.984;2024-02-28T05:58:57;152397.88;;;2.99;65.93
12913;BME280;6524;51.368;11.984;2024-02-28T06:03:57;152340.78;;;2.77;66.35
12913;BME280;6524;51.368;11.984;2024-02-28T06:08:58;152305.78;;;2.63;66.51
12913;BME280;6524;51.368;11.984;2024-02-28T06:13:58;152327.84;;;2.72;65.54
12913;BME280;6524;51.368;11.984;2024-02-28T06:18:59;152366.75;;;2.87;65.60
12913;BME280;6524;51.368;11.984;2024-02-28T06:24:00;152403.03;;;3.01;65.19
12913;BME280;6524;51.368;11.984;2024-02-28T06:29:00;152416.03;;;3.07;65.20
12913;BME280;6524;51.368;11.984;2024-02-28T06:34:04;152364.13;;;2.86;66.32
12913;BME280;6524;51.368;11.984;2024-02-28T06:39:04;152364.13;;;2.86;64.91
12913;BME280;6524;51.368;11.984;2024-02-28T06:44:04;152370.63;;;2.89;65.41
12913;BME280;6524;51.368;11.984;2024-02-28T06:49:05;152380.97;;;2.93;65.52
12913;BME280;6524;51.368;11.984;2024-02-28T06:54:05;152395.25;;;2.98;64.46
12913;BME280;6524;51.368;11.984;2024-02-28T06:59:05;152397.88;;;2.99;64.44
12913;BME280;6524;51.368;11.984;2024-02-28T07:04:07;152434.16;;;3.14;63.89
12913;BME280;6524;51.368;11.984;2024-02-28T07:09:08;152457.53;;;3.23;64.29
12913;BME280;6524;51.368;11.984;2024-02-28T07:14:09;152418.59;;;3.08;64.01
12913;BME280;6524;51.368;11.984;2024-02-28T07:19:09;152480.88;;;3.32;63.92
12913;BME280;6524;51.368;11.984;2024-02-28T07:24:10;152665.13;;;4.05;61.89
12913;BME280;6524;51.368;11.984;2024-02-28T07:29:10;152645.69;;;3.97;61.19
12913;BME280;6524;51.368;11.984;2024-02-28T07:34:11;152784.63;;;4.52;59.80
12913;BME280;6524;51.368;11.984;2024-02-28T07:39:11;152969.03;;;5.24;57.72
12913;BME280;6524;51.368;11.984;2024-02-28T07:44:12;153409.84;;;6.98;52.12
12913;BME280;6524;51.368;11.984;2024-02-28T07:49:13;153506.16;;;7.35;51.43
12913;BME280;6524;51.368;11.984;2024-02-28T07:54:13;153359.06;;;6.78;52.15
12913;BME280;6524;51.368;11.984;2024-02-28T07:59:14;153650.63;;;7.92;48.70
12913;BME280;6524;51.368;11.984;2024-02-28T08:04:14;153424.09;;;7.03;51.12
12913;BME280;6524;51.368;11.984;2024-02-28T08:09:14;153031.41;;;5.49;55.69
12913;BME280;6524;51.368;11.984;2024-02-28T08:14:16;152813.19;;;4.63;58.49
12913;BME280;6524;51.368;11.984;2024-02-28T08:19:16;152771.66;;;4.47;59.62
12913;BME280;6524;51.368;11.984;2024-02-28T08:24:17;152771.66;;;4.47;59.57
12913;BME280;6524;51.368;11.984;2024-02-28T08:29:18;152839.16;;;4.73;58.97
12913;BME280;6524;51.368;11.984;2024-02-28T08:34:18;152823.56;;;4.67;58.69
12913;BME280;6524;51.368;11.984;2024-02-28T08:39:18;152734.00;;;4.32;59.98
12913;BME280;6524;51.368;11.984;2024-02-28T08:44:19;152822.28;;;4.67;59.06
12913;BME280;6524;51.368;11.984;2024-02-28T08:49:20;152798.91;;;4.57;58.89
12913;BME280;6524;51.368;11.984;2024-02-28T08:54:21;152813.19;;;4.63;61.04
12913;BME280;6524;51.368;11.984;2024-02-28T08:59:21;153320.03;;;6.62;58.94
12913;BME280;6524;51.368;11.984;2024-02-28T09:04:22;153526.94;;;7.43;51.39
12913;BME280;6524;51.368;11.984;2024-02-28T09:09:22;153842.09;;;8.67;47.81
12913;BME280;6524;51.368;11.984;2024-02-28T09:14:22;153783.41;;;8.44;47.82
12913;BME280;6524;51.368;11.984;2024-02-28T09:19:23;154192.72;;;10.05;44.10
12913;BME280;6524;51.368;11.984;2024-02-28T09:24:24;154064.91;;;9.55;44.68
12913;BME280;6524;51.368;11.984;2024-02-28T09:29:25;154379.25;;;10.78;41.45
12913;BME280;6524;51.368;11.984;2024-02-28T09:34:25;155200.84;;;13.99;36.61
12913;BME280;6524;51.368;11.984;2024-02-28T09:39:26;155308.09;;;14.41;34.70
12913;BME280;6524;51.368;11.984;2024-02-28T09:44:26;155530.56;;;15.28;34.56
12913;BME280;6524;51.368;11.984;2024-02-28T09:49:28;155810.75;;;16.37;31.62
12913;BME280;6524;51.368;11.984;2024-02-28T09:54:32;155740.03;;;16.10;31.76
12913;BME280;6524;51.368;11.984;2024-02-28T09:59:33;155855.28;;;16.55;31.17
12913;BME280;6524;51.368;11.984;2024-02-28T10:04:36;156241.94;;;18.06;29.95
12913;BME280;6524;51.368;11.984;2024-02-28T10:09:37;155418.03;;;14.84;32.94
12913;BME280;6524;51.368;11.984;2024-02-28T10:14:40;155438.94;;;14.92;33.44
12913;BME280;6524;51.368;11.984;2024-02-28T10:19:44;156012.56;;;17.16;30.23
12913;BME280;6524;51.368;11.984;2024-02-28T10:24:45;156121.28;;;17.59;29.55
12913;BME280;6524;51.368;11.984;2024-02-28T10:29:47;156020.44;;;17.19;29.62
12913;BME280;6524;51.368;11.984;2024-02-28T10:34:55;156327.19;;;18.39;28.79
12913;BME280;6524;51.368;11.984;2024-02-28T10:40:03;156180.31;;;17.82;29.32
12913;BME280;6524;51.368;11.984;2024-02-28T10:45:08;156332.41;;;18.41;28.83
12913;BME280;6524;51.368;11.984;2024-02-28T10:50:14;156189.53;;;17.85;29.32
12913;BME280;6524;51.368;11.984;2024-02-28T10:55:20;156066.25;;;17.37;30.30
12913;BME280;6524;51.368;11.984;2024-02-28T11:00:24;156384.91;;;18.61;28.29
12913;BME280;6524;51.368;11.984;2024-02-28T11:05:35;156184.28;;;17.83;28.73
12913;BME280;6524;51.368;11.984;2024-02-28T11:10:45;156352.13;;;18.49;28.66
12913;BME280;6524;51.368;11.984;2024-02-28T11:15:55;156353.44;;;18.49;28.24
12913;BME280;6524;51.368;11.984;2024-02-28T11:20:56;156249.81;;;18.09;28.61
12913;BME280;6524;51.368;11.984;2024-02-28T11:25:56;156155.41;;;17.72;29.03
12913;BME280;6524;51.368;11.984;2024-02-28T11:30:57;155918.19;;;16.79;30.13
12913;BME280;6524;51.368;11.984;2024-02-28T11:35:59;156106.88;;;17.53;29.92
12913;BME280;6524;51.368;11.984;2024-02-28T11:41:00;155991.59;;;17.08;30.35
12913;BME280;6524;51.368;11.984;2024-02-28T11:46:00;156104.25;;;17.52;30.12
12913;BME280;6524;51.368;11.984;2024-02-28T11:51:15;156109.53;;;17.54;29.92
12913;BME280;6524;51.368;11.984;2024-02-28T11:56:24;156036.16;;;17.25;30.15
12913;BME280;6524;51.368;11.984;2024-02-28T12:01:37;155935.19;;;16.86;30.53
12913;BME280;6524;51.368;11.984;2024-02-28T12:06:39;155898.50;;;16.72;30.12
12913;BME280;6524;51.368;11.984;2024-02-28T12:11:40;155851.38;;;16.53;30.74
12913;BME280;6524;51.368;11.984;2024-02-28T12:16:41;155721.66;;;16.03;30.52
12913;BME280;6524;51.368;11.984;2024-02-28T12:21:42;155654.91;;;15.77;30.42
12913;BME280;6524;51.368;11.984;2024-02-28T12:26:43;155321.13;;;14.46;31.83
12913;BME280;6524;51.368;11.984;2024-02-28T12:31:44;155373.53;;;14.67;32.17
12913;BME280;6524;51.368;11.984;2024-02-28T12:36:44;155213.94;;;14.04;32.37
12913;BME280;6524;51.368;11.984;2024-02-28T12:41:45;155284.56;;;14.32;33.39
12913;BME280;6524;51.368;11.984;2024-02-28T12:46:45;155157.72;;;13.82;34.24
12913;BME280;6524;51.368;11.984;2024-02-28T12:51:46;155015.19;;;13.27;35.57
12913;BME280;6524;51.368;11.984;2024-02-28T12:56:50;155057.03;;;13.43;35.13
12913;BME280;6524;51.368;11.984;2024-02-28T13:01:50;154868.81;;;12.69;36.59
12913;BME280;6524;51.368;11.984;2024-02-28T13:06:51;154824.44;;;12.52;36.31
12913;BME280;6524;51.368;11.984;2024-02-28T13:11:53;154808.75;;;12.46;36.55
12913;BME280;6524;51.368;11.984;2024-02-28T13:16:54;154671.59;;;11.92;36.91
12913;BME280;6524;51.368;11.984;2024-02-28T13:21:55;154825.72;;;12.53;36.08
12913;BME280;6524;51.368;11.984;2024-02-28T13:26:56;154923.75;;;12.91;36.73
12913;BME280;6524;51.368;11.984;2024-02-28T13:31:57;155047.84;;;13.39;34.07
12913;BME280;6524;51.368;11.984;2024-02-28T13:36:57;154973.38;;;13.10;34.05
12913;BME280;6524;51.368;11.984;2024-02-28T13:41:58;155050.50;;;13.40;33.26
12913;BME280;6524;51.368;11.984;2024-02-28T13:46:59;154868.81;;;12.69;33.22
12913;BME280;6524;51.368;11.984;2024-02-28T13:52:00;154696.44;;;12.02;34.96
12913;BME280;6524;51.368;11.984;2024-02-28T13:57:02;154598.44;;;11.64;35.97
12913;BME280;6524;51.368;11.984;2024-02-28T14:02:04;154637.66;;;11.79;33.62
12913;BME280;6524;51.368;11.984;2024-02-28T14:07:05;154719.91;;;12.11;33.84
12913;BME280;6524;51.368;11.984;2024-02-28T14:12:06;154719.91;;;12.11;34.51
12913;BME280;6524;51.368;11.984;2024-02-28T14:17:07;154685.97;;;11.98;34.04
12913;BME280;6524;51.368;11.984;2024-02-28T14:22:09;154605.00;;;11.66;35.04
12913;BME280;6524;51.368;11.984;2024-02-28T14:27:10;154539.72;;;11.41;34.81
12913;BME280;6524;51.368;11.984;2024-02-28T14:32:12;154390.97;;;10.82;35.34
12913;BME280;6524;51.368;11.984;2024-02-28T14:37:16;154404.03;;;10.87;35.41
12913;BME280;6524;51.368;11.984;2024-02-28T14:42:17;154454.88;;;11.07;36.45
12913;BME280;6524;51.368;11.984;2024-02-28T14:47:18;154388.38;;;10.81;37.16
12913;BME280;6524;51.368;11.984;2024-02-28T14:52:19;154328.34;;;10.58;36.80
12913;BME280;6524;51.368;11.984;2024-02-28T14:57:19;154341.34;;;10.63;37.19
12913;BME280;6524;51.368;11.984;2024-02-28T15:02:20;154307.44;;;10.50;37.53
12913;BME280;6524;51.368;11.984;2024-02-28T15:07:24;154204.41;;;10.09;37.96
12913;BME280;6524;51.368;11.984;2024-02-28T15:12:24;154195.31;;;10.06;38.57
12913;BME280;6524;51.368;11.984;2024-02-28T15:17:25;154195.31;;;10.06;36.97
12913;BME280;6524;51.368;11.984;2024-02-28T15:22:26;154171.81;;;9.96;37.51
12913;BME280;6524;51.368;11.984;2024-02-28T15:27:27;154226.59;;;10.18;37.46
12913;BME280;6524;51.368;11.984;2024-02-28T15:32:28;154231.78;;;10.20;38.17
12913;BME280;6524;51.368;11.984;2024-02-28T15:37:28;154213.53;;;10.13;38.11
12913;BME280;6524;51.368;11.984;2024-02-28T15:42:29;154140.53;;;9.84;38.79
12913;BME280;6524;51.368;11.984;2024-02-28T15:47:31;153981.47;;;9.22;39.77
12913;BME280;6524;51.368;11.984;2024-02-28T15:52:34;153881.19;;;8.83;40.50
12913;BME280;6524;51.368;11.984;2024-02-28T15:57:35;153773.00;;;8.40;42.38
12913;BME280;6524;51.368;11.984;2024-02-28T16:02:36;153677.94;;;8.03;42.58
12913;BME280;6524;51.368;11.984;2024-02-28T16:07:43;153710.50;;;8.16;42.31
12913;BME280;6524;51.368;11.984;2024-02-28T16:12:44;153711.78;;;8.16;42.47
12913;BME280;6524;51.368;11.984;2024-02-28T16:17:44;153646.69;;;7.91;43.20
12913;BME280;6524;51.368;11.984;2024-02-28T16:22:45;153611.56;;;7.77;43.97
12913;BME280;6524;51.368;11.984;2024-02-28T16:27:46;153576.41;;;7.63;44.54
12913;BME280;6524;51.368;11.984;2024-02-28T16:32:46;153521.78;;;7.41;46.98
12913;BME280;6524;51.368;11.984;2024-02-28T16:37:47;153434.53;;;7.07;48.13
12913;BME280;6524;51.368;11.984;2024-02-28T16:42:47;153405.91;;;6.96;48.08
12913;BME280;6524;51.368;11.984;2024-02-28T16:47:48;153338.28;;;6.69;48.07
12913;BME280;6524;51.368;11.984;2024-02-28T16:52:49;153294.06;;;6.52;48.51
12913;BME280;6524;51.368;11.984;2024-02-28T16:57:49;153230.34;;;6.27;49.54
12913;BME280;6524;51.368;11.984;2024-02-28T17:02:50;153186.16;;;6.10;50.65
12913;BME280;6524;51.368;11.984;2024-02-28T17:07:52;153148.44;;;5.95;50.75
12913;BME280;6524;51.368;11.984;2024-02-28T17:12:53;153106.81;;;5.78;52.69
12913;BME280;6524;51.368;11.984;2024-02-28T17:17:53;153026.19;;;5.47;53.71
12913;BME280;6524;51.368;11.984;2024-02-28T17:22:54;153026.19;;;5.47;53.48
12913;BME280;6524;51.368;11.984;2024-02-28T17:27:54;152969.03;;;5.24;54.54
12913;BME280;6524;51.368;11.984;2024-02-28T17:32:55;152900.22;;;4.97;55.06
12913;BME280;6524;51.368;11.984;2024-02-28T17:37:56;152919.69;;;5.05;54.52
12913;BME280;6524;51.368;11.984;2024-02-28T17:42:59;152870.34;;;4.85;55.34
12913;BME280;6524;51.368;11.984;2024-02-28T17:48:00;152876.84;;;4.88;54.81
12913;BME280;6524;51.368;11.984;2024-02-28T17:53:01;152836.56;;;4.72;55.97
12913;BME280;6524;51.368;11.984;2024-02-28T17:58:02;152787.19;;;4.53;56.29
12913;BME280;6524;51.368;11.984;2024-02-28T18:03:03;152772.94;;;4.47;57.60
12913;BME280;6524;51.368;11.984;2024-02-28T18:08:04;152748.28;;;4.37;56.94
12913;BME280;6524;51.368;11.984;2024-02-28T18:13:05;152717.06;;;4.25;57.53
12913;BME280;6524;51.368;11.984;2024-02-28T18:18:07;152706.66;;;4.21;58.36
12913;BME280;6524;51.368;11.984;2024-02-28T18:23:08;152732.69;;;4.31;58.15
12913;BME280;6524;51.368;11.984;2024-02-28T18:28:08;152714.44;;;4.24;58.56
12913;BME280;6524;51.368;11.984;2024-02-28T18:33:09;152648.25;;;3.98;59.56
12913;BME280;6524;51.368;11.984;2024-02-28T18:38:10;152652.13;;;4.00;58.44
12913;BME280;6524;51.368;11.984;2024-02-28T18:43:11;152636.59;;;3.93;57.95
12913;BME280;6524;51.368;11.984;2024-02-28T18:48:15;152633.97;;;3.92;59.31
12913;BME280;6524;51.368;11.984;2024-02-28T18:53:15;152646.97;;;3.98;59.01
12913;BME280;6524;51.368;11.984;2024-02-28T18:58:16;152628.81;;;3.90;59.62
12913;BME280;6524;51.368;11.984;2024-02-28T19:03:16;152543.16;;;3.57;60.77
12913;BME280;6524;51.368;11.984;2024-02-28T19:08:17;152579.47;;;3.71;59.49
12913;BME280;6524;51.368;11.984;2024-02-28T19:13:18;152589.88;;;3.75;59.37
12913;BME280;6524;51.368;11.984;2024-02-28T19:18:18;152633.97;;;3.92;57.97
12913;BME280;6524;51.368;11.984;2024-02-28T19:23:19;152672.91;;;4.08;57.31
12913;BME280;6524;51.368;11.984;2024-02-28T19:28:19;152683.28;;;4.12;56.73
12913;BME280;6524;51.368;11.984;2024-02-28T19:33:20;152671.63;;;4.07;56.77
12913;BME280;6524;51.368;11.984;2024-02-28T19:38:23;152672.91;;;4.08;56.29
12913;BME280;6524;51.368;11.984;2024-02-28T19:43:24;152646.97;;;3.98;56.83
12913;BME280;6524;51.368;11.984;2024-02-28T19:48:26;152560.00;;;3.63;57.56
12913;BME280;6524;51.368;11.984;2024-02-28T19:53:27;152628.81;;;3.90;56.64
12913;BME280;6524;51.368;11.984;2024-02-28T19:58:27;152613.25;;;3.84;57.07
12913;BME280;6524;51.368;11.984;2024-02-28T20:03:28;152597.66;;;3.78;57.21
12913;BME280;6524;51.368;11.984;2024-02-28T20:08:29;152602.81;;;3.80;56.99
12913;BME280;6524;51.368;11.984;2024-02-28T20:13:30;152571.69;;;3.68;57.75
12913;BME280;6524;51.368;11.984;2024-02-28T20:18:31;152613.25;;;3.84;57.76
12913;BME280;6524;51.368;11.984;2024-02-28T20:23:32;152583.38;;;3.72;58.48
12913;BME280;6524;51.368;11.984;2024-02-28T20:28:33;152553.53;;;3.61;58.56
12913;BME280;6524;51.368;11.984;2024-02-28T20:33:33;152527.59;;;3.50;60.10
12913;BME280;6524;51.368;11.984;2024-02-28T20:38:34;152457.53;;;3.23;60.57
12913;BME280;6524;51.368;11.984;2024-02-28T20:43:35;152464.00;;;3.25;60.43
12913;BME280;6524;51.368;11.984;2024-02-28T20:48:38;152447.16;;;3.19;61.08
12913;BME280;6524;51.368;11.984;2024-02-28T20:53:42;152413.41;;;3.06;62.33
12913;BME280;6524;51.368;11.984;2024-02-28T20:58:45;152340.78;;;2.77;62.43
12913;BME280;6524;51.368;11.984;2024-02-28T21:03:45;152312.28;;;2.66;62.79
12913;BME280;6524;51.368;11.984;2024-02-28T21:08:46;152281.16;;;2.53;63.20
12913;BME280;6524;51.368;11.984;2024-02-28T21:13:48;152275.97;;;2.51;63.99
12913;BME280;6524;51.368;11.984;2024-02-28T21:18:53;152296.72;;;2.60;63.24
12913;BME280;6524;51.368;11.984;2024-02-28T21:23:55;152252.63;;;2.42;64.34
12913;BME280;6524;51.368;11.984;2024-02-28T21:28:55;152251.34;;;2.42;64.73
12913;BME280;6524;51.368;11.984;2024-02-28T21:33:56;152234.44;;;2.35;64.51
12913;BME280;6524;51.368;11.984;2024-02-28T21:38:57;152212.41;;;2.26;64.15
12913;BME280;6524;51.368;11.984;2024-02-28T21:43:58;152123.00;;;1.91;65.29
12913;BME280;6524;51.368;11.984;2024-02-28T21:48:59;152076.34;;;1.73;65.22
12913;BME280;6524;51.368;11.984;2024-02-28T21:54:01;152143.75;;;1.99;66.00
12913;BME280;6524;51.368;11.984;2024-02-28T21:59:01;152133.34;;;1.95;66.00
12913;BME280;6524;51.368;11.984;2024-02-28T22:04:02;152115.22;;;1.88;65.82
12913;BME280;6524;51.368;11.984;2024-02-28T22:09:02;152129.47;;;1.94;65.83
12913;BME280;6524;51.368;11.984;2024-02-28T22:14:03;152081.53;;;1.75;64.75
12913;BME280;6524;51.368;11.984;2024-02-28T22:19:04;152037.47;;;1.57;66.23
12913;BME280;6524;51.368;11.984;2024-02-28T22:24:05;152058.22;;;1.65;66.84
12913;BME280;6524;51.368;11.984;2024-02-28T22:29:07;151974.00;;;1.32;67.70
12913;BME280;6524;51.368;11.984;2024-02-28T22:34:08;152018.06;;;1.50;66.18
12913;BME280;6524;51.368;11.984;2024-02-28T22:39:08;151910.53;;;1.07;67.55
12913;BME280;6524;51.368;11.984;2024-02-28T22:44:09;151900.19;;;1.03;67.11
12913;BME280;6524;51.368;11.984;2024-02-28T22:49:10;151931.28;;;1.15;65.75
12913;BME280;6524;51.368;11.984;2024-02-28T22:54:11;151871.69;;;0.92;67.27
12913;BME280;6524;51.368;11.984;2024-02-28T22:59:15;151933.84;;;1.16;67.94
12913;BME280;6524;51.368;11.984;2024-02-28T23:04:16;151963.66;;;1.28;67.67
12913;BME280;6524;51.368;11.984;2024-02-28T23:09:17;151920.94;;;1.11;65.65
12913;BME280;6524;51.368;11.984;2024-02-28T23:14:18;151851.00;;;0.84;66.85
12913;BME280;6524;51.368;11.984;2024-02-28T23:19:18;151884.66;;;0.97;67.51
12913;BME280;6524;51.368;11.984;2024-02-28T23:24:19;151806.97;;;0.66;67.95
12913;BME280;6524;51.368;11.984;2024-02-28T23:29:20;151931.28;;;1.15;68.10
12913;BME280;6524;51.368;11.984;2024-02-28T23:34:20;151975.28;;;1.33;67.24
12913;BME280;6524;51.368;11.984;2024-02-28T23:39:20;151953.31;;;1.24;67.95
12913;BME280;6524;51.368;11.984;2024-02-28T23:44:21;151941.63;;;1.19;67.87
12913;BME280;6524;51.368;11.984;2024-02-28T23:49:22;151944.19;;;1.21;67.88
12913;BME280;6524;51.368;11.984;2024-02-28T23:54:23;151920.94;;;1.11;68.23
12913;BME280;6524;51.368;11.984;2024-02-28T23:59:23;151879.47;;;0.95;68.29
